Wetterdaten: Woche 29.04.13 - 05.05.13 (KW18)
Datum Zeit Temp. A. Feuchte A. Luftdruck Regen Wind Richtung Taupunkt Windchill Windben
29.04.2013 00:00 11,4 C 82 % 1015,1 hPa 0,0 l/m 0,0 km/h N 8,3 C 11,4 C 0,0 km/h
29.04.2013 01:00 10,5 C 83 % 1014,9 hPa 0,0 l/m 0,0 km/h N 7,7 C 10,5 C 0,0 km/h
29.04.2013 02:00 9,7 C 83 % 1014,2 hPa 0,0 l/m 0,0 km/h N 7,0 C 9,7 C 0,0 km/h
29.04.2013 03:00 8,9 C 83 % 1014,1 hPa 0,0 l/m 0,0 km/h N 6,1 C 8,9 C 0,0 km/h
29.04.2013 04:00 8,3 C 82 % 1014,0 hPa 0,0 l/m 0,0 km/h N 5,5 C 8,3 C 0,0 km/h
29.04.2013 05:00 7,9 C 82 % 1013,9 hPa 0,0 l/m 0,0 km/h N 5,0 C 7,9 C 0,0 km/h
29.04.2013 06:00 7,9 C 81 % 1014,1 hPa 0,0 l/m 0,0 km/h N 4,7 C 7,9 C 0,0 km/h
29.04.2013 07:00 9,4 C 78 % 1014,3 hPa 0,0 l/m 0,1 km/h N 5,7 C 9,4 C 0,8 km/h
29.04.2013 08:00 11,4 C 78 % 1014,2 hPa 0,0 l/m 0,3 km/h N 7,7 C 11,4 C 3,2 km/h
29.04.2013 09:00 13,8 C 81 % 1014,3 hPa 0,0 l/m 0,4 km/h N 10,5 C 13,8 C 4,4 km/h
29.04.2013 10:00 15,9 C 73 % 1014,5 hPa 0,0 l/m 1,1 km/h N 11,1 C 15,9 C 7,2 km/h
29.04.2013 11:00 17,0 C 69 % 1014,8 hPa 0,0 l/m 3,2 km/h N 11,3 C 17,0 C 10,4 km/h
29.04.2013 12:00 18,6 C 65 % 1015,1 hPa 0,0 l/m 4,9 km/h N 11,9 C 18,6 C 12,1 km/h
29.04.2013 13:00 17,5 C 68 % 1015,3 hPa 0,0 l/m 7,8 km/h N 11,5 C 16,9 C 20,9 km/h
29.04.2013 14:00 17,8 C 68 % 1015,3 hPa 0,0 l/m 7,4 km/h N 11,8 C 17,3 C 18,9 km/h
29.04.2013 15:00 17,9 C 68 % 1015,6 hPa 0,0 l/m 8,1 km/h N 11,8 C 17,1 C 19,3 km/h
29.04.2013 16:00 17,2 C 68 % 1015,7 hPa 0,0 l/m 7,3 km/h N 11,2 C 16,7 C 19,7 km/h
29.04.2013 17:00 16,9 C 70 % 1016,1 hPa 0,0 l/m 4,7 km/h N 11,3 C 16,9 C 15,3 km/h
29.04.2013 18:00 16,9 C 70 % 1016,1 hPa 0,0 l/m 3,3 km/h N 11,5 C 16,9 C 12,5 km/h
29.04.2013 19:00 16,5 C 71 % 1016,8 hPa 0,0 l/m 5,7 km/h N 11,2 C 16,5 C 18,1 km/h
29.04.2013 20:00 15,6 C 73 % 1017,8 hPa 0,0 l/m 0,8 km/h N 10,6 C 15,6 C 8,1 km/h
29.04.2013 21:00 14,8 C 74 % 1018,6 hPa 0,0 l/m 0,6 km/h N 10,2 C 14,8 C 7,2 km/h
29.04.2013 22:00 14,6 C 75 % 1018,8 hPa 0,0 l/m 2,1 km/h N 10,1 C 14,6 C 11,7 km/h
29.04.2013 23:00 14,6 C 73 % 1019,1 hPa 0,0 l/m 2,7 km/h N 9,8 C 14,6 C 10,1 km/h
30.04.2013 00:00 14,6 C 73 % 1019,3 hPa 0,0 l/m 2,0 km/h N 9,7 C 14,6 C 10,5 km/h
30.04.2013 01:00 13,6 C 75 % 1019,6 hPa 0,0 l/m 0,3 km/h N 9,3 C 13,6 C 4,4 km/h
30.04.2013 02:00 12,8 C 77 % 1019,4 hPa 0,0 l/m 0,1 km/h N 8,8 C 12,8 C 1,6 km/h
30.04.2013 03:00 11,7 C 80 % 1019,5 hPa 0,0 l/m 0,0 km/h N 8,3 C 11,7 C 0,0 km/h
30.04.2013 04:00 10,5 C 82 % 1019,4 hPa 0,0 l/m 0,0 km/h N 7,5 C 10,5 C 0,0 km/h
30.04.2013 05:00 9,7 C 83 % 1019,2 hPa 0,0 l/m 0,0 km/h N 6,9 C 9,7 C 0,0 km/h
30.04.2013 06:00 9,7 C 81 % 1019,3 hPa 0,0 l/m 0,0 km/h N 6,6 C 9,7 C 0,4 km/h
30.04.2013 07:00 11,2 C 79 % 1019,5 hPa 0,0 l/m 0,0 km/h N 7,7 C 11,2 C 0,4 km/h
30.04.2013 08:00 13,6 C 80 % 1019,3 hPa 0,0 l/m 0,6 km/h N 10,3 C 13,6 C 3,6 km/h
30.04.2013 09:00 15,8 C 76 % 1018,8 hPa 0,0 l/m 0,4 km/h N 11,5 C 15,8 C 5,2 km/h
30.04.2013 10:00 17,8 C 71 % 1018,4 hPa 0,0 l/m 1,3 km/h N 12,5 C 17,8 C 7,2 km/h
30.04.2013 11:00 19,8 C 65 % 1017,4 hPa 0,0 l/m 5,1 km/h N 13,0 C 19,8 C 16,5 km/h
30.04.2013 12:00 21,4 C 61 % 1016,8 hPa 0,0 l/m 4,9 km/h N 13,4 C 21,4 C 16,9 km/h
30.04.2013 13:00 22,4 C 60 % 1016,1 hPa 0,0 l/m 5,3 km/h N 14,1 C 22,4 C 14,9 km/h
30.04.2013 14:00 22,0 C 59 % 1015,4 hPa 0,0 l/m 4,9 km/h N 13,6 C 22,0 C 15,7 km/h
30.04.2013 15:00 21,2 C 63 % 1014,8 hPa 0,0 l/m 7,0 km/h N 13,9 C 20,8 C 18,9 km/h
30.04.2013 16:00 21,6 C 64 % 1014,3 hPa 0,0 l/m 3,9 km/h N 14,4 C 21,6 C 12,5 km/h
30.04.2013 17:00 21,9 C 64 % 1013,3 hPa 0,0 l/m 2,8 km/h N 14,7 C 21,9 C 9,6 km/h
30.04.2013 18:00 21,8 C 68 % 1012,6 hPa 0,0 l/m 0,4 km/h N 15,5 C 21,8 C 2,8 km/h
30.04.2013 19:00 21,0 C 72 % 1012,5 hPa 0,0 l/m 0,0 km/h N 15,7 C 21,0 C 0,0 km/h
30.04.2013 20:00 19,4 C 76 % 1012,8 hPa 0,0 l/m 0,0 km/h N 15,0 C 19,4 C 0,4 km/h
30.04.2013 21:00 17,9 C 79 % 1013,2 hPa 0,0 l/m 0,2 km/h N 14,2 C 17,9 C 1,2 km/h
30.04.2013 22:00 18,0 C 77 % 1014,0 hPa 0,0 l/m 2,6 km/h N 13,8 C 17,9 C 11,3 km/h
30.04.2013 23:00 20,0 C 69 % 1014,4 hPa 0,0 l/m 2,5 km/h N 14,2 C 20,0 C 14,1 km/h
01.05.2013 00:00 19,5 C 70 % 1015,3 hPa 0,0 l/m 5,3 km/h N 13,9 C 19,4 C 19,3 km/h
01.05.2013 01:00 18,2 C 74 % 1016,2 hPa 0,0 l/m 4,7 km/h N 13,4 C 18,2 C 16,1 km/h
01.05.2013 02:00 17,0 C 76 % 1017,0 hPa 0,0 l/m 8,8 km/h N 12,7 C 15,9 C 22,1 km/h
01.05.2013 03:00 16,2 C 77 % 1017,9 hPa 0,0 l/m 3,8 km/h N 12,2 C 16,1 C 13,7 km/h
01.05.2013 04:00 15,0 C 78 % 1018,6 hPa 0,0 l/m 3,4 km/h N 11,2 C 15,0 C 12,1 km/h
01.05.2013 05:00 14,3 C 78 % 1019,0 hPa 0,0 l/m 3,6 km/h N 10,5 C 14,3 C 9,3 km/h
01.05.2013 06:00 13,7 C 79 % 1019,8 hPa 0,0 l/m 2,7 km/h N 10,1 C 13,7 C 11,6 km/h
01.05.2013 07:00 13,8 C 78 % 1020,3 hPa 0,0 l/m 5,7 km/h N 10,1 C 13,7 C 15,7 km/h
01.05.2013 08:00 14,3 C 76 % 1021,0 hPa 0,0 l/m 5,2 km/h N 10,1 C 14,3 C 14,1 km/h
01.05.2013 09:00 15,0 C 74 % 1021,3 hPa 0,0 l/m 4,1 km/h N 10,3 C 15,0 C 11,7 km/h
01.05.2013 10:00 16,1 C 71 % 1021,3 hPa 0,0 l/m 4,5 km/h N 10,9 C 16,1 C 10,9 km/h
01.05.2013 11:00 17,6 C 67 % 1020,8 hPa 0,0 l/m 4,0 km/h N 11,3 C 17,6 C 11,7 km/h
01.05.2013 12:00 19,4 C 63 % 1020,2 hPa 0,0 l/m 2,9 km/h N 12,2 C 19,4 C 9,7 km/h
01.05.2013 13:00 20,7 C 60 % 1019,4 hPa 0,0 l/m 3,1 km/h N 12,7 C 20,7 C 10,5 km/h
01.05.2013 14:00 21,9 C 59 % 1018,9 hPa 0,0 l/m 3,0 km/h N 13,4 C 21,9 C 10,9 km/h
01.05.2013 15:00 22,2 C 58 % 1018,2 hPa 0,0 l/m 2,5 km/h N 13,5 C 22,2 C 10,1 km/h
01.05.2013 16:00 22,3 C 58 % 1017,6 hPa 0,0 l/m 1,2 km/h N 13,7 C 22,3 C 7,6 km/h
01.05.2013 17:00 22,7 C 59 % 1017,0 hPa 0,0 l/m 1,0 km/h N 14,4 C 22,7 C 6,8 km/h
01.05.2013 18:00 22,8 C 58 % 1016,6 hPa 0,0 l/m 0,3 km/h N 14,1 C 22,8 C 3,6 km/h
01.05.2013 19:00 22,1 C 60 % 1016,7 hPa 0,0 l/m 0,0 km/h N 14,0 C 22,1 C 0,0 km/h
01.05.2013 20:00 19,6 C 67 % 1016,8 hPa 0,0 l/m 0,0 km/h N 13,2 C 19,6 C 0,4 km/h
01.05.2013 21:00 18,0 C 71 % 1017,3 hPa 0,0 l/m 0,3 km/h N 12,7 C 18,0 C 4,4 km/h
01.05.2013 22:00 16,9 C 73 % 1017,2 hPa 0,0 l/m 0,1 km/h N 11,9 C 16,9 C 2,8 km/h
01.05.2013 23:00 15,3 C 75 % 1017,2 hPa 0,0 l/m 0,0 km/h N 10,9 C 15,3 C 0,0 km/h
02.05.2013 00:00 13,7 C 80 % 1016,9 hPa 0,0 l/m 0,0 km/h N 10,4 C 13,7 C 0,8 km/h
02.05.2013 01:00 13,1 C 82 % 1016,6 hPa 0,0 l/m 0,0 km/h N 10,1 C 13,1 C 0,4 km/h
02.05.2013 02:00 12,7 C 82 % 1016,0 hPa 0,0 l/m 0,0 km/h N 9,7 C 12,7 C 0,0 km/h
02.05.2013 03:00 12,2 C 83 % 1015,5 hPa 0,0 l/m 0,0 km/h N 9,3 C 12,2 C 0,0 km/h
02.05.2013 04:00 12,9 C 82 % 1015,6 hPa 0,0 l/m 3,2 km/h N 9,8 C 12,5 C 11,3 km/h
02.05.2013 05:00 13,0 C 82 % 1016,0 hPa 1,3 l/m 3,8 km/h N 10,0 C 12,8 C 12,9 km/h
02.05.2013 06:00 13,0 C 82 % 1016,7 hPa 7,8 l/m 3,0 km/h N 10,0 C 13,0 C 12,5 km/h
02.05.2013 07:00 12,7 C 80 % 1016,8 hPa 3,9 l/m 0,0 km/h N 9,4 C 12,7 C 0,8 km/h
02.05.2013 08:00 12,8 C 79 % 1017,0 hPa 1,6 l/m 0,4 km/h N 9,2 C 12,8 C 4,4 km/h
02.05.2013 09:00 13,5 C 77 % 1016,4 hPa 2,6 l/m 0,3 km/h N 9,5 C 13,5 C 4,0 km/h
02.05.2013 10:00 13,8 C 77 % 1016,4 hPa 0,5 l/m 0,9 km/h N 9,7 C 13,8 C 7,2 km/h
02.05.2013 11:00 13,7 C 76 % 1016,4 hPa 0,0 l/m 0,8 km/h N 9,6 C 13,7 C 4,8 km/h
02.05.2013 12:00 14,4 C 75 % 1016,5 hPa 0,0 l/m 0,3 km/h N 10,1 C 14,4 C 4,4 km/h
02.05.2013 13:00 16,1 C 75 % 1015,8 hPa 0,0 l/m 0,4 km/h N 11,5 C 16,1 C 4,8 km/h
02.05.2013 14:00 17,5 C 78 % 1015,1 hPa 0,0 l/m 0,3 km/h N 13,6 C 17,5 C 4,0 km/h
02.05.2013 15:00 18,6 C 81 % 1014,5 hPa 0,0 l/m 0,4 km/h N 15,3 C 18,6 C 4,4 km/h
02.05.2013 16:00 19,1 C 78 % 1014,1 hPa 0,0 l/m 1,6 km/h N 15,3 C 19,1 C 7,2 km/h
02.05.2013 17:00 19,3 C 79 % 1013,9 hPa 0,0 l/m 0,5 km/h N 15,5 C 19,3 C 4,8 km/h
02.05.2013 18:00 18,6 C 82 % 1013,4 hPa 0,0 l/m 0,6 km/h N 15,5 C 18,6 C 4,4 km/h
02.05.2013 19:00 17,9 C 82 % 1013,1 hPa 0,0 l/m 0,8 km/h N 14,8 C 17,9 C 5,2 km/h
02.05.2013 20:00 17,4 C 82 % 1013,0 hPa 0,3 l/m 0,3 km/h N 14,2 C 17,4 C 3,6 km/h
02.05.2013 21:00 16,9 C 80 % 1012,5 hPa 0,0 l/m 0,2 km/h N 13,5 C 16,9 C 3,2 km/h
02.05.2013 22:00 16,4 C 80 % 1012,7 hPa 0,0 l/m 0,0 km/h N 12,8 C 16,4 C 1,2 km/h
02.05.2013 23:00 16,3 C 79 % 1012,4 hPa 0,0 l/m 0,2 km/h N 12,6 C 16,3 C 2,0 km/h
03.05.2013 00:00 16,1 C 78 % 1012,0 hPa 0,0 l/m 0,0 km/h N 12,4 C 16,1 C 2,0 km/h
03.05.2013 01:00 15,9 C 78 % 1011,2 hPa 0,0 l/m 0,2 km/h N 12,1 C 15,9 C 3,6 km/h
03.05.2013 02:00 15,6 C 78 % 1010,8 hPa 0,0 l/m 0,0 km/h N 11,8 C 15,6 C 0,4 km/h
03.05.2013 03:00 15,3 C 78 % 1010,2 hPa 0,5 l/m 0,0 km/h N 11,5 C 15,3 C 0,4 km/h
03.05.2013 04:00 15,3 C 77 % 1009,7 hPa 0,8 l/m 0,2 km/h N 11,3 C 15,3 C 1,2 km/h
03.05.2013 05:00 15,0 C 77 % 1009,7 hPa 1,8 l/m 0,0 km/h N 11,0 C 15,0 C 0,0 km/h
03.05.2013 06:00 15,2 C 76 % 1009,5 hPa 4,2 l/m 0,1 km/h N 11,0 C 15,2 C 0,8 km/h
03.05.2013 07:00 15,3 C 76 % 1009,8 hPa 0,0 l/m 0,9 km/h N 11,0 C 15,3 C 5,6 km/h
03.05.2013 08:00 15,2 C 78 % 1010,2 hPa 0,0 l/m 4,4 km/h N 11,4 C 15,2 C 16,5 km/h
03.05.2013 09:00 15,7 C 83 % 1010,6 hPa 0,3 l/m 8,7 km/h N 12,7 C 14,4 C 21,7 km/h
03.05.2013 10:00 15,4 C 82 % 1011,3 hPa 0,0 l/m 7,1 km/h N 12,2 C 14,9 C 20,1 km/h
03.05.2013 11:00 15,2 C 81 % 1011,6 hPa 0,0 l/m 7,8 km/h N 11,9 C 14,4 C 20,5 km/h
03.05.2013 12:00 15,4 C 81 % 1011,8 hPa 0,0 l/m 7,1 km/h N 12,1 C 15,0 C 18,1 km/h
03.05.2013 13:00 16,1 C 78 % 1011,9 hPa 0,0 l/m 7,7 km/h N 12,3 C 15,4 C 25,8 km/h
03.05.2013 14:00 16,7 C 76 % 1011,8 hPa 0,0 l/m 9,3 km/h N 12,5 C 15,3 C 22,5 km/h
03.05.2013 15:00 16,2 C 77 % 1011,9 hPa 0,0 l/m 8,1 km/h N 12,1 C 15,3 C 22,5 km/h
03.05.2013 16:00 16,8 C 75 % 1011,7 hPa 0,0 l/m 7,3 km/h N 12,2 C 16,3 C 19,7 km/h
03.05.2013 17:00 16,8 C 74 % 1011,5 hPa 0,0 l/m 6,3 km/h N 12,2 C 16,7 C 16,9 km/h
03.05.2013 18:00 17,5 C 71 % 1011,5 hPa 0,0 l/m 6,3 km/h N 12,1 C 17,4 C 18,1 km/h
03.05.2013 19:00 16,3 C 73 % 1011,8 hPa 0,0 l/m 6,0 km/h N 11,5 C 16,3 C 16,5 km/h
03.05.2013 20:00 14,7 C 78 % 1012,5 hPa 0,0 l/m 5,6 km/h N 10,8 C 14,7 C 16,5 km/h
03.05.2013 21:00 14,1 C 79 % 1013,2 hPa 0,0 l/m 7,3 km/h N 10,4 C 13,6 C 19,7 km/h
03.05.2013 22:00 13,7 C 79 % 1014,0 hPa 0,0 l/m 3,6 km/h N 10,1 C 13,7 C 9,7 km/h
03.05.2013 23:00 13,4 C 79 % 1014,6 hPa 0,0 l/m 4,4 km/h N 9,9 C 13,4 C 12,5 km/h
04.05.2013 00:00 13,3 C 80 % 1014,3 hPa 0,0 l/m 2,5 km/h N 9,8 C 13,3 C 8,4 km/h
04.05.2013 01:00 12,9 C 81 % 1013,9 hPa 0,0 l/m 2,6 km/h N 9,6 C 12,9 C 10,5 km/h
04.05.2013 02:00 12,8 C 81 % 1014,3 hPa 0,0 l/m 5,3 km/h N 9,7 C 12,8 C 15,7 km/h
04.05.2013 03:00 12,6 C 82 % 1014,7 hPa 0,0 l/m 4,6 km/h N 9,6 C 12,4 C 13,3 km/h
04.05.2013 04:00 12,5 C 82 % 1014,8 hPa 0,0 l/m 2,7 km/h N 9,5 C 12,5 C 9,7 km/h
04.05.2013 05:00 12,4 C 83 % 1014,9 hPa 0,0 l/m 1,9 km/h N 9,6 C 12,4 C 6,4 km/h
04.05.2013 06:00 12,5 C 83 % 1015,6 hPa 0,0 l/m 1,4 km/h N 9,7 C 12,5 C 5,6 km/h
04.05.2013 07:00 13,1 C 82 % 1016,3 hPa 0,0 l/m 2,3 km/h N 10,0 C 13,1 C 8,4 km/h
04.05.2013 08:00 13,7 C 79 % 1016,7 hPa 0,0 l/m 4,3 km/h N 10,1 C 13,7 C 12,1 km/h
04.05.2013 09:00 14,9 C 76 % 1017,0 hPa 0,0 l/m 5,6 km/h N 10,6 C 14,8 C 15,3 km/h
04.05.2013 10:00 15,4 C 75 % 1017,3 hPa 0,0 l/m 4,5 km/h N 10,9 C 15,4 C 13,7 km/h
04.05.2013 11:00 16,6 C 73 % 1017,3 hPa 0,0 l/m 5,8 km/h N 11,7 C 16,4 C 16,1 km/h
04.05.2013 12:00 18,1 C 71 % 1017,1 hPa 0,0 l/m 7,1 km/h N 12,6 C 17,7 C 20,1 km/h
04.05.2013 13:00 18,5 C 71 % 1017,0 hPa 0,0 l/m 6,5 km/h N 13,0 C 18,3 C 19,7 km/h
04.05.2013 14:00 19,6 C 64 % 1016,6 hPa 0,0 l/m 6,2 km/h N 12,7 C 19,5 C 17,7 km/h
04.05.2013 15:00 20,0 C 63 % 1016,1 hPa 0,0 l/m 3,7 km/h N 12,6 C 20,0 C 11,7 km/h
04.05.2013 16:00 20,1 C 61 % 1015,7 hPa 0,0 l/m 2,4 km/h N 12,2 C 20,1 C 9,7 km/h
04.05.2013 17:00 19,8 C 62 % 1015,9 hPa 0,0 l/m 0,3 km/h N 12,4 C 19,8 C 4,4 km/h
04.05.2013 18:00 18,9 C 67 % 1016,1 hPa 0,0 l/m 0,1 km/h N 12,5 C 18,9 C 1,6 km/h
04.05.2013 19:00 18,6 C 69 % 1016,5 hPa 0,0 l/m 0,6 km/h N 12,9 C 18,6 C 6,0 km/h
04.05.2013 20:00 18,0 C 74 % 1016,8 hPa 0,0 l/m 1,3 km/h N 13,3 C 18,0 C 6,4 km/h
04.05.2013 21:00 16,9 C 80 % 1017,2 hPa 0,0 l/m 0,1 km/h N 13,3 C 16,9 C 1,2 km/h
04.05.2013 22:00 16,1 C 82 % 1017,4 hPa 0,0 l/m 0,2 km/h N 13,1 C 16,1 C 2,0 km/h
04.05.2013 23:00 15,5 C 83 % 1018,3 hPa 0,3 l/m 0,1 km/h N 12,6 C 15,5 C 2,4 km/h
05.05.2013 00:00 14,4 C 83 % 1019,9 hPa 3,1 l/m 3,6 km/h N 11,5 C 14,4 C 18,1 km/h
05.05.2013 01:00 13,4 C 83 % 1019,8 hPa 1,3 l/m 1,2 km/h N 10,6 C 13,4 C 8,4 km/h
05.05.2013 02:00 12,8 C 83 % 1019,9 hPa 0,0 l/m 0,6 km/h N 10,0 C 12,8 C 7,2 km/h
05.05.2013 03:00 13,1 C 83 % 1020,0 hPa 0,0 l/m 3,6 km/h N 10,2 C 13,1 C 17,3 km/h
05.05.2013 04:00 13,4 C 82 % 1020,6 hPa 0,0 l/m 1,7 km/h N 10,3 C 13,4 C 8,1 km/h
05.05.2013 05:00 13,2 C 82 % 1020,9 hPa 0,0 l/m 3,0 km/h N 10,2 C 13,2 C 11,3 km/h
05.05.2013 06:00 13,8 C 78 % 1021,1 hPa 0,0 l/m 7,7 km/h N 10,0 C 13,0 C 22,1 km/h
05.05.2013 07:00 14,5 C 76 % 1021,1 hPa 0,0 l/m 8,9 km/h N 10,2 C 13,2 C 21,3 km/h
05.05.2013 08:00 15,4 C 73 % 1021,7 hPa 0,0 l/m 8,7 km/h N 10,5 C 14,2 C 23,7 km/h
05.05.2013 09:00 16,5 C 69 % 1022,0 hPa 0,0 l/m 10,3 km/h N 10,9 C 14,7 C 23,3 km/h
05.05.2013 10:00 17,5 C 65 % 1022,2 hPa 0,0 l/m 8,4 km/h N 10,9 C 16,6 C 20,5 km/h
05.05.2013 11:00 18,2 C 65 % 1022,5 hPa 0,0 l/m 6,3 km/h N 11,5 C 18,1 C 18,1 km/h
05.05.2013 12:00 19,2 C 60 % 1022,3 hPa 0,0 l/m 5,1 km/h N 11,3 C 19,2 C 14,5 km/h
05.05.2013 13:00 19,4 C 58 % 1022,0 hPa 0,0 l/m 4,5 km/h N 10,9 C 19,4 C 13,7 km/h
05.05.2013 14:00 20,0 C 58 % 1021,6 hPa 0,0 l/m 3,2 km/h N 11,5 C 20,0 C 13,7 km/h
05.05.2013 15:00 19,7 C 60 % 1021,2 hPa 0,0 l/m 2,9 km/h N 11,6 C 19,7 C 11,7 km/h
05.05.2013 16:00 19,6 C 60 % 1020,9 hPa 0,0 l/m 2,7 km/h N 11,5 C 19,6 C 10,5 km/h
05.05.2013 17:00 20,0 C 59 % 1020,8 hPa 0,0 l/m 1,1 km/h N 11,7 C 20,0 C 6,0 km/h
05.05.2013 18:00 20,2 C 60 % 1020,7 hPa 0,0 l/m 0,4 km/h N 12,2 C 20,2 C 4,8 km/h
05.05.2013 19:00 19,8 C 60 % 1020,8 hPa 0,0 l/m 0,1 km/h N 11,6 C 19,8 C 2,4 km/h
05.05.2013 20:00 18,7 C 66 % 1020,9 hPa 0,0 l/m 0,1 km/h N 12,2 C 18,7 C 0,8 km/h
05.05.2013 21:00 17,3 C 73 % 1021,0 hPa 0,0 l/m 0,2 km/h N 12,4 C 17,3 C 2,0 km/h
05.05.2013 22:00 16,7 C 75 % 1020,7 hPa 0,0 l/m 0,5 km/h N 12,3 C 16,7 C 2,8 km/h
05.05.2013 23:00 15,9 C 77 % 1020,5 hPa 0,0 l/m 0,0 km/h N 11,9 C 15,9 C 0,0 km/h
Min-Datum _ 29.04.13 01.05.13 03.05.13 - 29.04.13 - 29.04.13 29.04.13 29.04.13
_ Min-Zeit 05:45 14:45 06:30 - 00:00 - 05:45 05:45 00:00
Minimum _ 7,7 C 56 % 1009,3 hPa - 0,0 km/h - 4,7 C 7,7 C 0,0 km/h
Max-Datum _ 01.05.13 29.04.13 05.05.13 02.05.13 05.05.13 - 30.04.13 01.05.13 03.05.13
_ Max-Zeit 18:30 01:15 11:00 06:00 09:00 - 19:15 18:30 13:45
Maximum _ 22,9 C 83 % 1022,5 hPa 7,8 l/m 12,7 km/h
N
- 16,0 C 22,9 C 32,2 km/h
N
Durchschnitt _ 16,1 C 74 % 1016,3 hPa #30,2 l/m 2,7 km/h N 11,3 C 16,0 C 9,2 km/h